createdAt,value
2023-06-14T00:02:18.588Z,62.03
2023-06-14T00:04:45.039Z,61.73
2023-06-14T00:07:15.087Z,61.91
2023-06-14T00:09:41.620Z,61.91
2023-06-14T00:12:09.796Z,62.35
2023-06-14T00:14:36.395Z,62.98
2023-06-14T00:17:03.748Z,63.10
2023-06-14T00:19:31.808Z,62.97
2023-06-14T00:21:58.754Z,62.23
2023-06-14T00:24:25.192Z,63.14
2023-06-14T00:26:51.581Z,62.91
2023-06-14T00:29:18.016Z,63.26
2023-06-14T00:31:44.435Z,62.76
2023-06-14T00:34:10.814Z,63.39
2023-06-14T00:36:37.322Z,63.71
2023-06-14T00:39:04.807Z,62.82
2023-06-14T00:41:31.239Z,64.01
2023-06-14T00:43:57.892Z,65.15
2023-06-14T00:46:24.492Z,64.97
2023-06-14T00:48:51.443Z,65.22
2023-06-14T00:51:17.906Z,65.03
2023-06-14T00:53:47.878Z,65.20
2023-06-14T00:56:15.889Z,65.95
2023-06-14T00:58:42.634Z,66.12
2023-06-14T01:01:09.006Z,65.73
2023-06-14T01:03:35.435Z,65.53
2023-06-14T01:06:12.854Z,66.14
2023-06-14T01:08:39.245Z,66.56
2023-06-14T01:11:13.201Z,66.67
2023-06-14T01:13:44.189Z,66.24
2023-06-14T01:16:10.848Z,66.50
2023-06-14T01:18:37.393Z,66.50
2023-06-14T01:21:06.908Z,66.17
2023-06-14T01:23:34.021Z,66.99
2023-06-14T01:26:01.040Z,67.20
2023-06-14T01:28:27.606Z,66.19
2023-06-14T01:30:54.826Z,67.94
2023-06-14T01:33:25.633Z,67.53
2023-06-14T01:35:52.822Z,67.13
2023-06-14T01:38:20.679Z,67.26
2023-06-14T01:40:47.110Z,66.96
2023-06-14T01:43:16.694Z,67.76
2023-06-14T01:45:43.606Z,68.41
2023-06-14T01:48:10.650Z,68.64
2023-06-14T01:50:37.041Z,69.02
2023-06-14T01:53:03.525Z,68.20
2023-06-14T01:55:29.956Z,68.35
2023-06-14T01:57:56.837Z,67.87
2023-06-14T02:00:23.241Z,68.12
2023-06-14T02:02:50.237Z,69.01
2023-06-14T02:05:19.878Z,68.19
2023-06-14T02:07:47.327Z,69.07
2023-06-14T02:10:14.518Z,68.82
2023-06-14T02:12:41.363Z,68.68
2023-06-14T02:15:08.134Z,68.33
2023-06-14T02:17:35.517Z,69.46
2023-06-14T02:20:02.005Z,69.47
2023-06-14T02:22:28.460Z,69.51
2023-06-14T02:25:01.684Z,70.33
2023-06-14T02:27:28.965Z,70.06
2023-06-14T02:29:55.391Z,70.15
2023-06-14T02:32:22.035Z,70.66
2023-06-14T02:34:51.008Z,70.35
2023-06-14T02:37:17.842Z,70.41
2023-06-14T02:39:44.219Z,70.85
2023-06-14T02:42:11.366Z,70.86
2023-06-14T02:44:38.013Z,70.70
2023-06-14T02:47:04.996Z,71.12
2023-06-14T02:49:31.615Z,70.82
2023-06-14T02:51:58.170Z,71.30
2023-06-14T02:54:24.526Z,71.13
2023-06-14T02:56:51.203Z,71.18
2023-06-14T02:59:18.128Z,71.24
2023-06-14T03:01:44.632Z,70.97
2023-06-14T03:04:11.081Z,71.55
2023-06-14T03:06:37.876Z,71.67
2023-06-14T03:09:07.174Z,71.54
2023-06-14T03:11:33.538Z,71.62
2023-06-14T03:14:01.582Z,71.77
2023-06-14T03:16:29.970Z,72.13
2023-06-14T03:18:56.462Z,71.76
2023-06-14T03:21:22.930Z,71.31
2023-06-14T03:23:49.718Z,71.47
2023-06-14T03:26:18.858Z,71.75
2023-06-14T03:28:46.535Z,71.24
2023-06-14T03:31:13.427Z,71.55
2023-06-14T03:33:40.072Z,71.34
2023-06-14T03:36:06.807Z,70.94
2023-06-14T03:38:33.435Z,71.62
2023-06-14T03:40:59.914Z,71.44
2023-06-14T03:43:26.368Z,71.41
2023-06-14T03:45:52.762Z,71.93
2023-06-14T03:48:19.190Z,72.34
2023-06-14T03:50:45.979Z,71.40
2023-06-14T03:53:12.682Z,73.07
2023-06-14T03:55:56.774Z,72.25
2023-06-14T03:58:23.789Z,72.67
2023-06-14T04:00:50.346Z,72.47
2023-06-14T04:03:16.924Z,72.21
2023-06-14T04:05:43.562Z,73.03
2023-06-14T04:08:10.534Z,72.86
2023-06-14T04:10:36.957Z,72.59
2023-06-14T04:13:03.386Z,72.14
2023-06-14T04:15:29.744Z,72.03
2023-06-14T04:17:58.413Z,71.42
2023-06-14T04:20:27.849Z,71.59
2023-06-14T04:22:54.249Z,71.93
2023-06-14T04:25:23.787Z,71.71
2023-06-14T04:27:51.161Z,72.36
2023-06-14T04:30:18.104Z,72.76
2023-06-14T04:32:45.132Z,72.86
2023-06-14T04:35:12.515Z,71.78
2023-06-14T04:37:41.299Z,71.65
2023-06-14T04:40:10.244Z,72.67
2023-06-14T04:42:38.488Z,71.58
2023-06-14T04:45:05.552Z,72.29
2023-06-14T04:47:33.195Z,71.92
2023-06-14T04:50:01.584Z,71.44
2023-06-14T04:52:28.274Z,71.56
2023-06-14T04:54:55.495Z,71.53
2023-06-14T04:57:23.338Z,72.39
2023-06-14T04:59:56.357Z,70.77
2023-06-14T05:02:23.985Z,71.05
2023-06-14T05:04:50.896Z,71.44
2023-06-14T05:07:17.341Z,70.98
2023-06-14T05:09:43.692Z,70.66
2023-06-14T05:12:10.924Z,70.05
2023-06-14T05:14:37.547Z,70.05
2023-06-14T05:17:04.040Z,69.49
2023-06-14T05:19:30.482Z,68.95
2023-06-14T05:21:56.910Z,68.33
2023-06-14T05:24:23.588Z,68.28
2023-06-14T05:26:50.246Z,68.49
2023-06-14T05:29:16.693Z,67.61
2023-06-14T05:31:43.169Z,67.42
2023-06-14T05:34:09.609Z,67.70
2023-06-14T05:36:37.940Z,66.25
2023-06-14T05:39:05.599Z,66.31
2023-06-14T05:41:32.262Z,65.80
2023-06-14T05:43:58.825Z,65.50
2023-06-14T05:46:29.290Z,65.27
2023-06-14T05:48:56.116Z,65.75
2023-06-14T05:51:22.965Z,63.61
2023-06-14T05:53:49.547Z,62.54
2023-06-14T05:56:16.372Z,62.94
2023-06-14T05:58:42.734Z,61.77
2023-06-14T06:01:09.163Z,60.86
2023-06-14T06:03:35.799Z,58.97
2023-06-14T06:06:02.409Z,58.41
2023-06-14T06:08:28.790Z,58.36
2023-06-14T06:10:55.276Z,57.76
2023-06-14T06:13:21.962Z,57.03
2023-06-14T06:15:48.339Z,57.95
2023-06-14T06:18:14.830Z,58.20
2023-06-14T06:20:41.284Z,57.86
2023-06-14T06:23:08.914Z,57.34
2023-06-14T06:25:35.524Z,57.85
2023-06-14T06:28:02.321Z,59.27
2023-06-14T06:30:28.832Z,58.90
2023-06-14T06:32:59.045Z,57.72
2023-06-14T06:35:25.854Z,58.69
2023-06-14T06:37:52.762Z,55.28
2023-06-14T06:40:19.263Z,55.56
2023-06-14T06:42:45.742Z,55.68
2023-06-14T06:45:12.215Z,54.76
2023-06-14T06:47:38.818Z,54.93
2023-06-14T06:50:05.483Z,55.88
2023-06-14T06:52:31.902Z,53.29
2023-06-14T06:54:58.510Z,52.06
2023-06-14T06:57:24.926Z,53.80
2023-06-14T06:59:51.404Z,53.55
2023-06-14T07:02:18.182Z,53.41
2023-06-14T07:04:45.153Z,49.10
2023-06-14T07:07:11.581Z,47.96
2023-06-14T07:09:38.283Z,47.39
2023-06-14T07:12:04.908Z,48.18
2023-06-14T07:14:31.573Z,48.98
2023-06-14T07:16:58.017Z,47.03
2023-06-14T07:19:24.372Z,48.59
2023-06-14T07:21:50.777Z,49.79
2023-06-14T07:24:17.334Z,50.73
2023-06-14T07:26:43.818Z,48.29
2023-06-14T07:29:10.177Z,49.44
2023-06-14T07:31:36.621Z,49.95
2023-06-14T07:34:03.205Z,48.59
2023-06-14T07:36:29.643Z,47.56
2023-06-14T07:38:56.672Z,47.36
2023-06-14T07:41:23.052Z,49.17
2023-06-14T07:43:49.484Z,48.62
2023-06-14T07:46:15.893Z,46.49
2023-06-14T07:48:42.361Z,47.56
2023-06-14T07:51:08.865Z,47.43
2023-06-14T07:53:35.650Z,47.72
2023-06-14T07:56:02.264Z,46.92
2023-06-14T07:58:28.723Z,47.22
2023-06-14T08:00:55.162Z,47.98
2023-06-14T08:03:21.864Z,47.00
2023-06-14T08:05:48.312Z,46.84
2023-06-14T08:08:14.823Z,47.43
2023-06-14T08:10:41.239Z,46.39
2023-06-14T08:13:07.677Z,46.22
2023-06-14T08:15:34.867Z,44.45
2023-06-14T08:18:02.276Z,42.68
2023-06-14T08:20:30.647Z,44.53
2023-06-14T08:22:58.009Z,41.56
2023-06-14T08:25:24.664Z,41.39
2023-06-14T08:27:51.455Z,42.56
2023-06-14T08:30:18.676Z,42.20
2023-06-14T08:32:45.501Z,42.70
2023-06-14T08:35:13.535Z,40.26
2023-06-14T08:37:41.732Z,40.68
2023-06-14T08:40:13.948Z,42.32
2023-06-14T08:42:40.421Z,42.36
2023-06-14T08:45:07.088Z,43.74
2023-06-14T08:47:41.822Z,43.10
2023-06-14T08:50:19.594Z,42.84
2023-06-14T08:53:01.461Z,43.45
2023-06-14T08:55:33.902Z,44.78
2023-06-14T08:58:04.652Z,42.32
2023-06-14T09:00:32.082Z,42.46
2023-06-14T09:02:59.492Z,42.63
2023-06-14T09:05:27.523Z,42.25
2023-06-14T09:07:56.126Z,43.25
2023-06-14T09:10:23.107Z,43.18
2023-06-14T09:12:49.783Z,43.31
2023-06-14T09:15:16.243Z,42.47
2023-06-14T09:17:42.709Z,42.48
2023-06-14T09:20:19.584Z,43.12
2023-06-14T09:22:46.421Z,41.53
2023-06-14T09:25:29.601Z,40.75
2023-06-14T09:28:00.094Z,40.98
2023-06-14T09:30:26.500Z,39.82
2023-06-14T09:32:52.927Z,40.08
2023-06-14T09:35:19.414Z,40.58
2023-06-14T09:37:46.015Z,40.94
2023-06-14T09:40:12.570Z,42.44
2023-06-14T09:42:39.224Z,42.01
2023-06-14T09:45:05.900Z,40.98
2023-06-14T09:47:32.365Z,40.99
2023-06-14T09:49:58.898Z,40.58
2023-06-14T09:52:27.769Z,39.54
2023-06-14T09:54:54.925Z,39.97
2023-06-14T09:57:23.193Z,40.46
2023-06-14T09:59:50.055Z,40.74
2023-06-14T10:02:22.541Z,40.33
2023-06-14T10:04:51.433Z,41.57
2023-06-14T10:07:19.499Z,40.60
2023-06-14T10:09:50.522Z,40.99
2023-06-14T10:12:21.838Z,37.36
2023-06-14T10:14:49.346Z,36.59
2023-06-14T10:17:18.800Z,35.23
2023-06-14T10:19:52.177Z,35.62
2023-06-14T10:22:19.606Z,37.86
2023-06-14T10:24:46.218Z,36.45
2023-06-14T10:27:18.157Z,36.92
2023-06-14T10:30:11.217Z,38.13
2023-06-14T10:32:45.538Z,39.32
2023-06-14T10:35:12.292Z,37.27
2023-06-14T10:37:41.053Z,35.45
2023-06-14T10:40:09.850Z,37.13
2023-06-14T10:42:36.273Z,36.61
2023-06-14T10:45:02.911Z,38.02
2023-06-14T10:47:29.473Z,38.44
2023-06-14T10:49:56.123Z,36.95
2023-06-14T10:52:27.017Z,36.19
2023-06-14T10:55:13.148Z,33.26
2023-06-14T10:57:51.046Z,33.52
2023-06-14T11:00:27.295Z,34.22
2023-06-14T11:03:14.464Z,34.88
2023-06-14T11:05:47.036Z,36.52
2023-06-14T11:08:13.630Z,36.15
2023-06-14T11:10:41.023Z,34.25
2023-06-14T11:13:08.245Z,35.45
2023-06-14T11:15:37.850Z,35.90
2023-06-14T11:18:05.580Z,34.58
2023-06-14T11:20:32.692Z,34.56
2023-06-14T11:22:59.182Z,35.09
2023-06-14T11:25:25.850Z,34.21
2023-06-14T11:27:52.382Z,33.57
2023-06-14T11:30:18.919Z,32.07
2023-06-14T11:32:49.095Z,32.87
2023-06-14T11:35:16.323Z,32.74
2023-06-14T11:37:42.931Z,32.98
2023-06-14T11:40:10.993Z,33.19
2023-06-14T11:42:38.297Z,33.61
2023-06-14T11:45:09.802Z,33.94
2023-06-14T11:47:37.214Z,32.90
2023-06-14T11:50:05.803Z,32.83
2023-06-14T11:52:32.591Z,33.57
2023-06-14T11:54:59.677Z,35.26
2023-06-14T11:57:26.316Z,35.31
2023-06-14T11:59:52.823Z,35.59
2023-06-14T12:02:19.799Z,34.47
2023-06-14T12:04:49.795Z,35.21
2023-06-14T12:07:18.343Z,33.34
2023-06-14T12:09:59.983Z,33.40
2023-06-14T12:12:27.492Z,36.11
2023-06-14T12:14:54.376Z,35.03
2023-06-14T12:17:21.196Z,34.58
2023-06-14T12:19:47.861Z,35.34
2023-06-14T12:22:14.718Z,36.07
2023-06-14T12:24:44.885Z,37.70
2023-06-14T12:27:16.565Z,36.34
2023-06-14T12:29:46.307Z,35.62
2023-06-14T12:32:12.860Z,35.93
2023-06-14T12:34:39.409Z,36.00
2023-06-14T12:37:08.898Z,34.66
2023-06-14T12:39:35.706Z,34.83
2023-06-14T12:42:11.224Z,35.64
2023-06-14T12:44:41.796Z,35.36
2023-06-14T12:47:08.676Z,35.63
2023-06-14T12:49:35.084Z,36.06
2023-06-14T12:52:01.468Z,35.22
2023-06-14T12:54:39.620Z,36.26
2023-06-14T12:57:07.465Z,36.29
2023-06-14T12:59:34.341Z,37.40
2023-06-14T13:02:25.798Z,36.82
2023-06-14T13:04:52.656Z,35.97
2023-06-14T13:07:19.192Z,37.99
2023-06-14T13:09:48.125Z,37.79
2023-06-14T13:12:14.536Z,36.13
2023-06-14T13:14:46.268Z,35.99
2023-06-14T13:17:13.556Z,37.76
2023-06-14T13:19:40.000Z,37.73
2023-06-14T13:22:06.720Z,37.57
2023-06-14T13:24:33.257Z,37.70
2023-06-14T13:27:00.269Z,37.31
2023-06-14T13:29:27.537Z,37.18
2023-06-14T13:31:54.238Z,37.19
2023-06-14T13:34:21.108Z,37.49
2023-06-14T13:36:48.446Z,38.62
2023-06-14T13:39:15.068Z,38.51
2023-06-14T13:41:41.528Z,39.46
2023-06-14T13:44:07.998Z,39.38
2023-06-14T13:46:34.504Z,40.85
2023-06-14T13:49:02.216Z,40.11
2023-06-14T13:51:28.675Z,40.54
2023-06-14T13:53:56.401Z,41.35
2023-06-14T13:56:25.117Z,42.09
2023-06-14T13:58:52.367Z,41.84
2023-06-14T14:01:20.640Z,41.59
2023-06-14T14:03:47.591Z,42.75
2023-06-14T14:06:14.208Z,41.98
2023-06-14T14:08:40.785Z,41.87
2023-06-14T14:11:07.303Z,42.73
2023-06-14T14:13:33.873Z,41.90
2023-06-14T14:16:00.815Z,41.50
2023-06-14T14:20:53.660Z,41.64
2023-06-14T14:23:21.721Z,40.60
2023-06-14T14:25:48.252Z,40.84
2023-06-14T14:28:17.012Z,41.06
2023-06-14T14:30:43.491Z,41.90
2023-06-14T14:33:10.010Z,42.50
2023-06-14T14:35:36.502Z,42.29
2023-06-14T14:38:04.391Z,41.44
2023-06-14T14:40:30.880Z,40.99
2023-06-14T14:42:57.335Z,41.38
2023-06-14T14:45:23.714Z,41.02
2023-06-14T14:47:50.221Z,42.01
2023-06-14T14:50:17.703Z,41.61
2023-06-14T14:52:44.362Z,40.22
2023-06-14T14:55:10.800Z,40.39
2023-06-14T14:57:37.570Z,40.17
2023-06-14T15:00:07.785Z,39.98
2023-06-14T15:02:34.220Z,40.09
2023-06-14T15:05:01.946Z,39.61
2023-06-14T15:07:28.896Z,40.32
2023-06-14T15:09:58.568Z,40.00
2023-06-14T15:12:25.077Z,40.60
2023-06-14T15:14:52.436Z,41.10
2023-06-14T15:17:19.383Z,40.84
2023-06-14T15:19:46.733Z,40.84
2023-06-14T15:22:13.162Z,40.88
2023-06-14T15:24:43.571Z,40.76
2023-06-14T15:27:11.880Z,40.31
2023-06-14T15:29:38.400Z,40.80
2023-06-14T15:32:06.312Z,41.20
2023-06-14T15:34:33.416Z,41.32
2023-06-14T15:36:59.818Z,45.30
2023-06-14T15:39:27.877Z,46.64
2023-06-14T15:41:54.399Z,44.20
2023-06-14T15:44:20.787Z,45.01
2023-06-14T15:46:49.887Z,45.58
2023-06-14T15:49:28.480Z,100.00
2023-06-14T15:51:54.869Z,88.02
2023-06-14T15:54:21.356Z,89.70
2023-06-14T15:56:47.824Z,85.70
2023-06-14T15:59:14.311Z,86.70
2023-06-14T16:01:41.032Z,79.55
2023-06-14T16:04:07.596Z,81.88
2023-06-14T16:06:34.113Z,77.04
2023-06-14T16:09:00.558Z,70.47
2023-06-14T16:11:26.977Z,73.93
2023-06-14T16:13:53.394Z,68.35
2023-06-14T16:16:21.737Z,69.96
2023-06-14T16:18:48.420Z,67.71
2023-06-14T16:21:14.906Z,67.15
2023-06-14T16:23:41.456Z,65.32
2023-06-14T16:26:10.338Z,66.02
2023-06-14T16:28:36.709Z,63.81
2023-06-14T16:31:03.171Z,66.39
2023-06-14T16:33:29.572Z,66.18
2023-06-14T16:35:55.980Z,65.55
2023-06-14T16:38:22.658Z,66.58
2023-06-14T16:40:49.492Z,68.02
2023-06-14T16:43:17.540Z,67.46
2023-06-14T16:45:43.923Z,67.60
2023-06-14T16:48:10.899Z,67.83
2023-06-14T16:50:37.965Z,67.20
2023-06-14T16:53:04.539Z,67.96
2023-06-14T16:55:32.905Z,67.41
2023-06-14T16:57:59.450Z,69.23
2023-06-14T17:00:26.006Z,67.59
2023-06-14T17:02:54.338Z,67.59
2023-06-14T17:05:21.745Z,68.70
2023-06-14T17:07:48.221Z,68.17
2023-06-14T17:10:15.242Z,68.96
2023-06-14T17:12:42.213Z,68.93
2023-06-14T17:15:08.854Z,69.48
2023-06-14T17:17:35.813Z,69.57
2023-06-14T17:20:02.329Z,69.65
2023-06-14T17:22:28.706Z,68.90
2023-06-14T17:24:55.195Z,69.42
2023-06-14T17:27:21.641Z,69.17
2023-06-14T17:29:48.031Z,69.36
2023-06-14T17:32:14.457Z,70.32
2023-06-14T17:34:40.830Z,70.57
2023-06-14T17:37:07.231Z,70.27
2023-06-14T17:39:33.952Z,69.83
2023-06-14T17:42:00.328Z,68.79
2023-06-14T17:44:26.740Z,69.21
2023-06-14T17:46:53.201Z,69.64
2023-06-14T17:49:24.377Z,68.50
2023-06-14T17:51:50.838Z,68.42
2023-06-14T17:54:17.283Z,68.01
2023-06-14T17:56:43.691Z,67.18
2023-06-14T17:59:10.704Z,67.61
2023-06-14T18:01:37.255Z,67.65
2023-06-14T18:04:03.827Z,67.37
2023-06-14T18:06:30.503Z,65.62
2023-06-14T18:08:56.910Z,65.61
2023-06-14T18:11:26.018Z,65.42
2023-06-14T18:13:54.096Z,65.49
2023-06-14T18:16:21.325Z,66.47
2023-06-14T18:18:47.955Z,66.14
2023-06-14T18:21:14.516Z,65.60
2023-06-14T18:23:41.017Z,64.88
2023-06-14T18:26:07.496Z,66.68
2023-06-14T18:28:33.863Z,67.33
2023-06-14T18:31:00.480Z,66.40
2023-06-14T18:33:26.969Z,64.17
2023-06-14T18:35:53.339Z,64.39
2023-06-14T18:38:19.776Z,64.81
2023-06-14T18:40:46.194Z,65.24
2023-06-14T18:43:12.736Z,65.24
2023-06-14T18:45:39.294Z,64.07
2023-06-14T18:48:05.801Z,65.57
2023-06-14T18:50:32.309Z,65.25
2023-06-14T18:52:58.747Z,64.73
2023-06-14T18:55:25.206Z,65.61
2023-06-14T18:57:51.703Z,65.51
2023-06-14T19:00:19.750Z,66.87
2023-06-14T19:02:47.138Z,66.58
2023-06-14T19:05:13.645Z,65.41
2023-06-14T19:07:40.103Z,65.30
2023-06-14T19:10:06.759Z,64.69
2023-06-14T19:12:33.165Z,64.95
2023-06-14T19:14:59.662Z,64.95
2023-06-14T19:17:27.129Z,64.50
2023-06-14T19:19:53.563Z,64.22
2023-06-14T19:22:20.013Z,63.99
2023-06-14T19:24:46.417Z,63.71
2023-06-14T19:27:12.810Z,64.27
2023-06-14T19:29:39.293Z,64.63
2023-06-14T19:32:06.138Z,63.86
2023-06-14T19:34:33.087Z,63.88
2023-06-14T19:36:59.587Z,63.48
2023-06-14T19:39:25.972Z,64.03
2023-06-14T19:41:52.401Z,64.05
2023-06-14T19:44:18.890Z,64.42
2023-06-14T19:46:45.321Z,65.14
2023-06-14T19:49:11.790Z,66.39
2023-06-14T19:51:38.281Z,66.59
2023-06-14T19:54:04.973Z,65.77
2023-06-14T19:56:31.378Z,67.45
2023-06-14T19:58:58.358Z,67.65
2023-06-14T20:01:24.893Z,67.16
2023-06-14T20:03:51.293Z,68.82
2023-06-14T20:06:17.848Z,69.33
2023-06-14T20:08:44.274Z,69.87
2023-06-14T20:11:10.698Z,69.56
2023-06-14T20:13:37.124Z,70.63
2023-06-14T20:16:05.172Z,70.79
2023-06-14T20:18:31.736Z,70.90
2023-06-14T20:20:58.189Z,70.87
2023-06-14T20:23:24.788Z,71.40
2023-06-14T20:25:52.580Z,70.99
2023-06-14T20:28:19.214Z,71.69
2023-06-14T20:30:45.715Z,71.83
2023-06-14T20:33:12.327Z,71.26
2023-06-14T20:35:40.726Z,70.56
2023-06-14T20:38:07.491Z,69.86
2023-06-14T20:40:37.474Z,69.12
2023-06-14T20:43:07.086Z,68.67
2023-06-14T20:45:34.040Z,68.25
2023-06-14T20:48:01.028Z,67.86
2023-06-14T20:50:27.708Z,67.73
2023-06-14T20:52:54.159Z,67.37
2023-06-14T20:55:20.883Z,66.98
2023-06-14T20:57:48.808Z,67.21
2023-06-14T21:00:16.884Z,66.83
2023-06-14T21:02:43.859Z,66.37
2023-06-14T21:05:10.570Z,66.07
2023-06-14T21:07:37.155Z,65.99
2023-06-14T21:10:03.936Z,65.72
2023-06-14T21:12:30.615Z,65.75
2023-06-14T21:14:57.239Z,65.79
2023-06-14T21:17:23.659Z,65.69
2023-06-14T21:19:50.169Z,65.74
2023-06-14T21:22:16.547Z,66.09
2023-06-14T21:24:42.914Z,66.74
2023-06-14T21:27:09.387Z,66.66
2023-06-14T21:29:38.767Z,66.32
2023-06-14T21:32:07.060Z,65.75
2023-06-14T21:34:33.478Z,65.92
2023-06-14T21:36:59.850Z,66.10
2023-06-14T21:39:26.220Z,66.09
2023-06-14T21:41:53.784Z,66.13
2023-06-14T21:44:20.239Z,65.98
2023-06-14T21:46:46.749Z,65.44
2023-06-14T21:49:13.224Z,65.49
2023-06-14T21:51:39.598Z,66.08
2023-06-14T21:54:06.012Z,66.82
2023-06-14T21:56:35.489Z,65.92
2023-06-14T21:59:01.880Z,65.41
2023-06-14T22:01:28.331Z,65.53
2023-06-14T22:03:54.844Z,65.61
2023-06-14T22:06:21.261Z,65.77
2023-06-14T22:08:47.644Z,66.21
2023-06-14T22:11:14.240Z,65.85
2023-06-14T22:13:41.248Z,65.81
2023-06-14T22:16:08.185Z,66.21
2023-06-14T22:18:35.552Z,66.46
2023-06-14T22:21:03.037Z,67.02
2023-06-14T22:23:37.312Z,66.78
2023-06-14T22:26:08.758Z,65.83
2023-06-14T22:28:44.204Z,66.38
2023-06-14T22:31:11.684Z,65.89
2023-06-14T22:33:46.558Z,66.18
2023-06-14T22:36:16.715Z,64.89
2023-06-14T22:38:43.592Z,64.58
2023-06-14T22:41:10.156Z,64.58
2023-06-14T22:43:41.025Z,64.24
2023-06-14T22:46:07.969Z,63.78
2023-06-14T22:48:46.893Z,63.69
2023-06-14T22:51:13.800Z,63.02
2023-06-14T22:53:40.760Z,62.58
2023-06-14T22:56:07.715Z,62.45
2023-06-14T22:58:34.867Z,62.97
2023-06-14T23:01:01.997Z,63.44
2023-06-14T23:03:29.585Z,63.30
2023-06-14T23:05:59.641Z,63.08
2023-06-14T23:08:26.672Z,63.66
2023-06-14T23:10:54.395Z,63.59
2023-06-14T23:13:20.775Z,64.27
2023-06-14T23:15:48.114Z,65.39
2023-06-14T23:18:14.740Z,64.70
2023-06-14T23:20:45.302Z,64.62
2023-06-14T23:23:11.761Z,64.46
2023-06-14T23:25:38.246Z,64.61
2023-06-14T23:28:08.107Z,64.88
2023-06-14T23:30:36.959Z,65.25
2023-06-14T23:33:03.958Z,64.88
2023-06-14T23:35:34.481Z,65.37
2023-06-14T23:38:00.944Z,65.34
2023-06-14T23:40:29.338Z,65.97
2023-06-14T23:42:56.178Z,64.94
2023-06-14T23:45:23.691Z,65.15
2023-06-14T23:47:50.379Z,65.16
2023-06-14T23:50:17.153Z,65.30
2023-06-14T23:52:46.218Z,65.99
2023-06-14T23:55:21.536Z,65.23
2023-06-14T23:57:50.474Z,65.84
